Time;durP1;ratioP1;P1;durP2;ratioP2;P2;SDS_P1;SDS_P2;PMS_P1;PMS_P2;Temp;Humidity;BMP_temperature;BMP_pressure;BME280_temperature;BME280_humidity;BME280_pressure;Samples;Min_cycle;Max_cycle;Signal;HPM_P1;HPM_P2
2022/01/27 00:04:42;;;;;;;63.78;32.75;;;;;;;3.17;96.70;102696.06;5063443;28;20053;-73
2022/01/27 00:07:08;;;;;;;70.55;33.95;;;;;;;3.24;96.88;102688.88;5055148;28;20033;-75
2022/01/27 00:09:48;;;;;;;50.65;22.20;;;;;;;3.01;97.83;102692.78;5049915;28;20032;-75
2022/01/27 00:12:18;;;;;;;64.55;36.60;;;;;;;3.23;97.00;102672.06;5046049;28;20085;-71
2022/01/27 00:14:46;;;;;;;65.55;34.05;;;;;;;3.42;96.12;102677.94;5054943;28;20036;-73
2022/01/27 00:17:14;;;;;;;55.83;23.73;;;;;;;3.25;95.52;102666.72;5053047;28;20020;-75
2022/01/27 00:19:41;;;;;;;47.35;19.38;;;;;;;3.12;97.17;102669.59;5040329;28;20036;-76
2022/01/27 00:22:07;;;;;;;58.58;27.15;;;;;;;3.01;97.62;102655.63;5055048;28;20496;-75
2022/01/27 00:24:32;;;;;;;36.80;15.48;;;;;;;2.98;97.26;102669.84;5055460;28;20020;-74
2022/01/27 00:26:58;;;;;;;54.15;21.60;;;;;;;3.04;97.34;102681.25;5053828;28;20624;-76
2022/01/27 00:29:24;;;;;;;55.90;21.75;;;;;;;3.05;97.81;102682.97;5053943;28;20430;-75
2022/01/27 00:31:49;;;;;;;63.17;26.88;;;;;;;3.08;97.93;102659.94;5049801;28;20153;-72
2022/01/27 00:34:15;;;;;;;52.80;20.23;;;;;;;3.13;97.40;102674.00;5053546;28;20051;-77
2022/01/27 00:36:40;;;;;;;50.13;22.48;;;;;;;3.03;98.05;102671.53;5057441;28;20065;-78
2022/01/27 00:39:05;;;;;;;61.72;28.27;;;;;;;3.12;97.04;102679.34;5054873;28;20032;-74
2022/01/27 00:41:31;;;;;;;55.95;28.70;;;;;;;3.14;96.34;102664.25;5051223;28;20549;-75
2022/01/27 00:43:56;;;;;;;44.05;19.80;;;;;;;3.02;97.21;102665.34;5059337;28;20047;-75
2022/01/27 00:46:22;;;;;;;55.38;24.45;;;;;;;3.18;96.22;102650.03;5065795;28;20103;-73
2022/01/27 00:48:49;;;;;;;60.28;36.40;;;;;;;3.74;94.62;102676.44;5051235;28;20021;-72
2022/01/27 00:51:22;;;;;;;41.17;16.90;;;;;;;3.26;96.04;102660.50;5061068;28;20032;-76
2022/01/27 00:54:06;;;;;;;56.25;27.58;;;;;;;3.35;96.24;102644.44;5059960;28;20033;-74
2022/01/27 00:56:43;;;;;;;61.42;25.98;;;;;;;3.29;96.05;102653.38;5061288;28;20489;-75
2022/01/27 01:01:48;;;;;;;;;;;;;;;3.38;96.42;102623.13;5060744;28;20044;-73
2022/01/27 01:04:13;;;;;;;52.63;23.65;;;;;;;3.14;97.01;102635.06;5064382;28;19938;-76
2022/01/27 01:06:43;;;;;;;62.47;27.98;;;;;;;3.15;96.95;102619.13;5047436;28;20036;-75
2022/01/27 01:19:46;;;;;;;55.20;26.13;;;;;;;3.14;97.75;102621.78;5051893;28;20504;-73
2022/01/27 01:33:25;;;;;;;46.67;24.90;;;;;;;3.30;96.28;102601.16;5040582;28;20077;-70
2022/01/27 01:36:01;;;;;;;55.88;24.25;;;;;;;3.24;96.18;102572.06;5049914;28;20032;-72
2022/01/27 01:38:29;;;;;;;51.00;18.38;;;;;;;3.05;97.88;102595.41;5053494;28;20035;-76
2022/01/27 01:40:56;;;;;;;48.80;19.75;;;;;;;3.19;96.93;102597.81;5055114;28;20035;-75
2022/01/27 01:43:21;;;;;;;58.10;28.17;;;;;;;3.35;95.99;102596.63;5056126;28;20032;-70
2022/01/27 01:45:47;;;;;;;54.80;21.65;;;;;;;3.22;96.20;102593.34;5057532;28;20081;-72
2022/01/27 01:48:15;;;;;;;57.08;27.67;;;;;;;3.37;96.38;102608.09;5054996;28;20111;-71
2022/01/27 01:50:40;;;;;;;55.55;24.70;;;;;;;3.44;95.93;102611.50;5048771;28;20035;-70
2022/01/27 01:53:05;;;;;;;50.00;22.63;;;;;;;3.35;95.51;102617.88;5058600;28;20032;-72
2022/01/27 01:55:32;;;;;;;60.42;33.17;;;;;;;3.48;95.76;102601.69;5051759;28;20056;-75
2022/01/27 01:57:58;;;;;;;51.75;25.45;;;;;;;3.51;95.09;102591.91;5049997;28;20033;-75
2022/01/27 02:00:25;;;;;;;58.35;35.17;;;;;;;3.60;95.25;102575.75;5054809;28;20043;-73
2022/01/27 02:02:51;;;;;;;46.00;22.42;;;;;;;3.33;95.79;102555.06;5060661;28;20032;-70
2022/01/27 02:05:19;;;;;;;37.15;17.75;;;;;;;3.47;95.35;102568.97;5049754;28;20036;-73
2022/01/27 02:08:02;;;;;;;52.80;25.73;;;;;;;3.59;94.89;102581.97;5049526;28;20493;-70
2022/01/27 02:17:47;;;;;;;53.70;23.45;;;;;;;3.35;96.43;102578.03;5045401;23;20045;-73
2022/01/27 02:18:43;;;;;;;44.88;18.65;;;;;;;3.35;95.77;102564.78;5024879;28;20036;-75
2022/01/27 02:21:08;;;;;;;43.58;19.27;;;;;;;3.41;95.13;102562.00;5019615;28;20038;-77
2022/01/27 02:23:34;;;;;;;41.65;18.15;;;;;;;3.37;96.54;102578.91;5005914;28;20053;-77
2022/01/27 02:25:59;;;;;;;47.95;21.23;;;;;;;3.52;95.60;102556.47;5021311;28;20525;-74
2022/01/27 02:28:24;;;;;;;49.45;24.35;;;;;;;3.51;95.03;102556.47;5019827;28;20033;-73
2022/01/27 02:30:50;;;;;;;53.05;26.50;;;;;;;3.43;95.34;102554.88;5017320;28;20639;-73
2022/01/27 02:33:15;;;;;;;45.63;22.38;;;;;;;3.68;94.37;102541.09;5018975;28;20135;-74
2022/01/27 02:35:40;;;;;;;53.10;26.52;;;;;;;3.69;93.65;102533.97;5017960;28;20029;-72
2022/01/27 02:38:06;;;;;;;48.45;24.58;;;;;;;3.61;95.78;102539.47;5006938;28;20330;-74
2022/01/27 02:40:49;;;;;;;54.53;27.02;;;;;;;3.67;94.36;102530.47;5020499;28;20027;-72
2022/01/27 02:43:14;;;;;;;51.08;24.25;;;;;;;3.63;94.55;102537.66;5027486;28;20035;-77
2022/01/27 02:45:46;;;;;;;53.13;26.08;;;;;;;3.69;94.31;102544.59;5021209;28;20033;-75
2022/01/27 02:48:12;;;;;;;48.53;24.23;;;;;;;3.62;95.11;102540.31;5003753;28;20419;-72
2022/01/27 02:50:37;;;;;;;48.47;21.90;;;;;;;3.35;96.52;102524.06;5021321;28;20074;-77
2022/01/27 02:53:02;;;;;;;48.78;21.45;;;;;;;3.47;96.25;102534.44;5020275;28;20108;-75
2022/01/27 02:55:28;;;;;;;43.20;18.88;;;;;;;3.53;95.92;102529.00;5021281;28;20533;-74
2022/01/27 02:57:56;;;;;;;52.30;23.88;;;;;;;3.49;95.56;102514.03;5018845;28;20083;-72
2022/01/27 03:00:21;;;;;;;48.88;20.77;;;;;;;3.65;94.91;102524.31;5021696;28;20028;-72
2022/01/27 03:02:46;;;;;;;50.33;24.00;;;;;;;3.52;96.31;102513.09;5020115;28;20036;-74
2022/01/27 03:05:11;;;;;;;51.08;25.13;;;;;;;3.62;95.21;102504.03;5021047;28;20025;-74
2022/01/27 03:07:37;;;;;;;51.85;28.13;;;;;;;3.73;95.41;102490.50;5019567;28;20475;-71
2022/01/27 03:10:03;;;;;;;45.80;20.05;;;;;;;3.57;95.60;102484.66;5021993;28;20072;-75
2022/01/27 03:12:29;;;;;;;47.75;23.13;;;;;;;3.54;95.70;102484.72;5018773;28;20021;-71
2022/01/27 03:14:55;;;;;;;48.90;23.63;;;;;;;3.77;94.52;102500.16;5021180;28;20361;-73
2022/01/27 03:17:20;;;;;;;38.90;15.75;;;;;;;3.62;95.81;102500.47;5020922;28;20151;-75
2022/01/27 03:19:45;;;;;;;45.90;21.95;;;;;;;3.57;95.58;102495.28;5021130;28;20779;-76
2022/01/27 03:22:11;;;;;;;47.00;21.58;;;;;;;3.63;96.26;102496.91;5003474;28;20474;-76
2022/01/27 03:24:37;;;;;;;49.75;24.75;;;;;;;3.43;97.03;102492.91;5020065;28;20037;-75
2022/01/27 03:27:12;;;;;;;40.08;16.80;;;;;;;3.43;97.35;102480.53;5016220;28;20024;-76
2022/01/27 03:29:37;;;;;;;47.80;21.30;;;;;;;3.53;97.12;102483.84;5018139;28;20040;-75
2022/01/27 03:32:03;;;;;;;48.08;22.17;;;;;;;3.48;97.01;102483.06;5021243;28;20033;-75
2022/01/27 03:34:28;;;;;;;50.75;23.38;;;;;;;3.67;96.73;102490.63;5038072;28;20338;-76
2022/01/27 03:36:53;;;;;;;46.08;21.38;;;;;;;3.83;95.86;102497.38;5025873;28;20421;-71
2022/01/27 03:39:21;;;;;;;45.15;22.02;;;;;;;3.58;96.08;102467.81;5025045;28;20136;-72
2022/01/27 03:41:50;;;;;;;52.17;23.60;;;;;;;3.54;96.74;102467.00;5023240;28;20053;-77
2022/01/27 03:44:16;;;;;;;51.83;27.38;;;;;;;3.78;95.97;102458.50;5036988;28;20177;-70
2022/01/27 03:46:41;;;;;;;42.65;20.08;;;;;;;3.63;96.59;102452.66;5026233;28;20033;-71
2022/01/27 03:49:07;;;;;;;39.92;17.05;;;;;;;3.48;97.62;102450.31;5001984;28;20616;-76
2022/01/27 03:51:32;;;;;;;41.47;19.20;;;;;;;3.43;98.54;102443.34;5007995;28;20060;-73
2022/01/27 03:53:57;;;;;;;36.92;15.27;;;;;;;3.29;98.73;102426.81;5020145;28;20029;-77
2022/01/27 03:56:23;;;;;;;52.83;24.25;;;;;;;3.33;98.40;102433.81;5008740;28;20040;-73
2022/01/27 03:58:48;;;;;;;45.92;19.35;;;;;;;3.44;98.15;102436.25;5003623;28;20029;-76
2022/01/27 04:01:13;;;;;;;44.13;20.40;;;;;;;3.57;98.01;102432.41;5011927;28;20452;-77
2022/01/27 04:03:39;;;;;;;42.60;19.63;;;;;;;3.34;99.12;102432.03;5021582;28;20029;-77
2022/01/27 04:06:09;;;;;;;48.33;18.75;;;;;;;3.41;98.85;102444.28;5008541;28;20123;-74
2022/01/27 04:08:37;;;;;;;42.20;18.88;;;;;;;3.62;97.88;102424.34;5008085;28;20399;-72
2022/01/27 04:11:04;;;;;;;51.45;23.52;;;;;;;3.66;98.04;102426.00;5023170;28;20025;-71
2022/01/27 04:13:30;;;;;;;38.20;17.40;;;;;;;3.33;99.24;102417.00;5020975;28;20037;-74
2022/01/27 04:15:55;;;;;;;40.25;20.17;;;;;;;3.50;98.80;102411.31;5023303;28;20045;-72
2022/01/27 04:18:20;;;;;;;50.97;21.20;;;;;;;3.62;97.88;102412.81;5002568;28;20029;-74
2022/01/27 04:20:45;;;;;;;50.33;28.48;;;;;;;3.83;97.51;102403.47;5023323;28;20052;-76
2022/01/27 04:23:11;;;;;;;45.83;18.27;;;;;;;3.59;98.00;102389.88;5017701;28;20025;-76
2022/01/27 04:25:38;;;;;;;45.35;18.98;;;;;;;3.85;97.55;102404.31;5006412;28;20037;-73
2022/01/27 04:28:08;;;;;;;49.28;21.25;;;;;;;3.69;98.08;102401.16;5023620;28;20029;-77
2022/01/27 04:30:33;;;;;;;46.85;24.75;;;;;;;3.83;97.31;102406.13;5001409;28;20021;-72
2022/01/27 04:33:01;;;;;;;49.00;22.13;;;;;;;3.78;97.65;102403.59;5000564;28;20234;-74
2022/01/27 04:35:30;;;;;;;36.22;18.58;;;;;;;3.77;98.21;102395.63;5031372;28;20084;-71
2022/01/27 04:40:52;;;;;;;45.33;20.70;;;;;;;3.57;98.50;102381.94;5019982;28;20025;-73
2022/01/27 04:45:53;;;;;;;51.15;25.65;;;;;;;3.56;99.30;102353.66;5018453;28;20778;-70
2022/01/27 04:48:20;;;;;;;51.17;22.02;;;;;;;3.49;99.99;102370.63;5034735;28;20464;-70
2022/01/27 04:50:46;;;;;;;47.90;25.17;;;;;;;3.49;100.00;102370.63;5020717;28;20463;-73
2022/01/27 04:53:24;;;;;;;53.30;21.80;;;;;;;3.52;100.00;102374.97;5018860;28;20109;-70
2022/01/27 04:55:50;;;;;;;38.22;13.68;;;;;;;3.22;100.00;102362.38;5020568;28;20038;-75
2022/01/27 04:58:20;;;;;;;35.55;16.30;;;;;;;3.28;100.00;102374.63;5019462;28;20040;-68
2022/01/27 05:00:45;;;;;;;36.78;16.83;;;;;;;3.31;100.00;102356.00;5020178;28;20076;-72
2022/01/27 05:03:17;;;;;;;34.88;14.60;;;;;;;3.32;100.00;102356.84;5019392;28;20382;-78
2022/01/27 05:05:42;;;;;;;48.45;23.00;;;;;;;3.52;100.00;102354.63;5022028;28;20041;-74
2022/01/27 05:08:15;;;;;;;49.72;22.42;;;;;;;3.36;100.00;102330.22;5016667;28;20041;-72
2022/01/27 05:10:40;;;;;;;48.58;20.35;;;;;;;3.50;100.00;102326.34;5005777;28;20992;-73
2022/01/27 05:13:13;;;;;;;49.88;19.05;;;;;;;3.60;100.00;102344.66;5020107;28;20039;-70
2022/01/27 05:15:44;;;;;;;41.97;18.55;;;;;;;3.47;100.00;102345.00;5024023;28;20471;-73
2022/01/27 05:18:10;;;;;;;39.40;17.02;;;;;;;3.52;100.00;102328.06;5017100;28;20081;-74
2022/01/27 05:20:35;;;;;;;49.83;20.73;;;;;;;3.69;100.00;102322.34;5026158;28;20443;-75
2022/01/27 05:23:00;;;;;;;35.22;13.45;;;;;;;3.60;100.00;102301.31;5019465;28;20021;-74
2022/01/27 05:25:26;;;;;;;42.55;18.60;;;;;;;3.68;100.00;102301.13;5019033;28;20036;-75
2022/01/27 05:27:51;;;;;;;48.92;21.92;;;;;;;3.70;100.00;102291.31;5035576;28;20103;-70
2022/01/27 05:30:17;;;;;;;47.22;20.98;;;;;;;3.85;99.92;102306.84;5036837;28;20061;-73
2022/01/27 05:32:42;;;;;;;46.90;19.10;;;;;;;3.77;100.00;102303.53;5017043;28;20030;-73
2022/01/27 05:35:08;;;;;;;44.30;20.75;;;;;;;3.87;99.38;102298.84;5005432;28;20049;-70
2022/01/27 05:37:33;;;;;;;45.08;21.27;;;;;;;3.90;100.00;102304.09;5021452;28;20064;-69
2022/01/27 05:39:58;;;;;;;46.28;21.30;;;;;;;3.95;100.00;102311.94;5037839;28;20030;-79
2022/01/27 05:42:24;;;;;;;45.70;19.98;;;;;;;3.99;99.73;102316.25;5015184;28;20119;-70
2022/01/27 05:44:49;;;;;;;43.40;18.10;;;;;;;3.86;100.00;102316.56;5023886;28;20030;-77
2022/01/27 05:47:14;;;;;;;48.35;18.58;;;;;;;4.17;99.26;102314.91;5017399;28;20026;-69
2022/01/27 05:49:40;;;;;;;43.55;21.15;;;;;;;4.29;98.32;102292.44;5017390;28;20040;-69
2022/01/27 05:52:05;;;;;;;31.13;13.98;;;;;;;3.97;100.00;102284.44;5019558;28;20161;-73
2022/01/27 05:54:33;;;;;;;47.00;22.33;;;;;;;3.93;100.00;102281.88;5021759;28;20021;-73
2022/01/27 05:56:59;;;;;;;45.28;21.92;;;;;;;4.11;100.00;102294.66;5038125;28;20080;-72
2022/01/27 05:59:24;;;;;;;50.38;24.45;;;;;;;4.15;100.00;102300.78;5014845;28;20457;-70
2022/01/27 06:01:49;;;;;;;40.72;18.13;;;;;;;4.04;100.00;102280.66;5017436;28;20512;-70
2022/01/27 06:04:15;;;;;;;47.92;21.40;;;;;;;3.93;100.00;102288.06;5019350;28;20489;-70
2022/01/27 06:06:40;;;;;;;54.75;23.15;;;;;;;3.87;100.00;102281.13;5032977;28;20064;-69
2022/01/27 06:09:05;;;;;;;53.97;19.33;;;;;;;3.72;100.00;102270.91;5020393;28;20516;-70
2022/01/27 06:11:31;;;;;;;50.53;20.25;;;;;;;3.72;100.00;102279.72;5019584;28;20029;-71
2022/01/27 06:13:56;;;;;;;46.72;21.77;;;;;;;3.71;100.00;102269.16;5018286;28;20028;-69
2022/01/27 06:16:21;;;;;;;55.53;21.65;;;;;;;3.72;100.00;102269.09;5021979;28;20041;-69
2022/01/27 06:18:47;;;;;;;49.72;19.98;;;;;;;3.77;100.00;102274.31;5015735;28;20049;-71
2022/01/27 06:21:13;;;;;;;57.38;26.60;;;;;;;4.00;100.00;102259.53;5021847;28;20079;-70
2022/01/27 06:23:38;;;;;;;57.58;25.80;;;;;;;3.96;100.00;102276.47;5018218;28;20406;-69
2022/01/27 06:26:04;;;;;;;50.28;18.92;;;;;;;3.82;100.00;102275.06;5023582;28;20031;-69
2022/01/27 06:28:30;;;;;;;51.70;24.90;;;;;;;3.77;100.00;102274.31;5031830;28;20436;-73
2022/01/27 06:30:56;;;;;;;52.78;23.90;;;;;;;3.65;100.00;102274.63;5020781;28;20039;-73
2022/01/27 06:33:22;;;;;;;57.05;24.95;;;;;;;3.67;100.00;102263.06;4997742;28;20030;-70
2022/01/27 06:35:47;;;;;;;56.75;25.75;;;;;;;3.57;100.00;102254.47;5016921;28;20033;-74
2022/01/27 06:38:13;;;;;;;50.65;18.98;;;;;;;3.63;100.00;102255.19;5019083;28;20032;-73
2022/01/27 06:40:38;;;;;;;59.47;24.55;;;;;;;3.86;100.00;102257.25;5015296;28;20121;-69
2022/01/27 06:43:03;;;;;;;56.45;23.73;;;;;;;3.69;100.00;102255.03;5020138;28;20037;-69
2022/01/27 06:45:28;;;;;;;48.45;17.90;;;;;;;3.65;100.00;102261.34;5016854;28;20269;-71
2022/01/27 06:47:54;;;;;;;59.97;24.65;;;;;;;3.73;100.00;102238.97;5018787;28;20044;-71
2022/01/27 06:50:19;;;;;;;58.08;25.90;;;;;;;3.71;100.00;102247.91;5003428;28;20083;-71
2022/01/27 06:52:45;;;;;;;56.30;25.15;;;;;;;3.85;100.00;102244.88;5015061;28;20037;-73
2022/01/27 06:55:12;;;;;;;45.33;16.08;;;;;;;3.83;100.00;102246.72;5001806;28;20025;-71
2022/01/27 06:57:37;;;;;;;49.80;19.15;;;;;;;3.90;100.00;102249.16;5016701;28;20125;-72
2022/01/27 07:00:04;;;;;;;51.83;20.08;;;;;;;4.07;100.00;102254.91;5000432;28;20102;-71
2022/01/27 07:02:30;;;;;;;52.28;21.00;;;;;;;4.14;100.00;102254.69;5029647;28;20029;-71
2022/01/27 07:04:56;;;;;;;47.22;21.52;;;;;;;3.95;100.00;102245.50;5018483;28;20055;-70
2022/01/27 07:07:21;;;;;;;37.67;14.40;;;;;;;3.88;100.00;102240.34;5022138;28;20029;-71
2022/01/27 07:09:47;;;;;;;59.90;27.55;;;;;;;4.11;100.00;102240.63;5019403;28;20033;-71
2022/01/27 07:12:12;;;;;;;58.22;26.98;;;;;;;4.17;100.00;102245.78;5037505;28;20365;-69
2022/01/27 07:14:37;;;;;;;46.65;19.92;;;;;;;4.01;100.00;102232.91;5018090;28;20476;-73
2022/01/27 07:17:04;;;;;;;49.70;20.48;;;;;;;4.06;100.00;102254.06;5022701;28;20518;-73
2022/01/27 07:19:29;;;;;;;52.75;23.08;;;;;;;4.08;100.00;102246.91;4997522;28;20033;-70
2022/01/27 07:21:54;;;;;;;51.03;20.92;;;;;;;4.19;100.00;102260.75;5022530;28;20548;-77
2022/01/27 07:24:20;;;;;;;44.63;17.65;;;;;;;4.12;100.00;102272.47;5002548;28;20025;-73
2022/01/27 07:26:45;;;;;;;58.22;24.05;;;;;;;4.28;100.00;102280.91;5020651;28;20116;-70
2022/01/27 07:29:10;;;;;;;46.78;16.95;;;;;;;4.31;100.00;102282.63;5001200;28;20056;-70
2022/01/27 07:31:36;;;;;;;44.80;21.17;;;;;;;4.33;100.00;102284.31;5017357;28;20061;-69
2022/01/27 07:34:01;;;;;;;47.92;21.30;;;;;;;4.28;100.00;102259.63;5019004;28;20482;-69
2022/01/27 07:36:28;;;;;;;52.03;22.75;;;;;;;4.39;100.00;102277.06;5022795;28;20557;-69
2022/01/27 07:38:53;;;;;;;54.28;26.40;;;;;;;4.45;100.00;102268.94;5017424;28;20053;-69
2022/01/27 07:41:19;;;;;;;50.63;19.58;;;;;;;4.19;100.00;102259.91;5003853;28;20061;-69
2022/01/27 07:43:45;;;;;;;54.03;24.85;;;;;;;4.34;100.00;102269.25;5014314;28;20080;-68
2022/01/27 07:46:13;;;;;;;57.30;20.92;;;;;;;4.07;100.00;102278.84;5014153;28;20059;-70
2022/01/27 07:48:40;;;;;;;61.38;21.60;;;;;;;4.06;100.00;102275.31;5016866;28;20026;-69
2022/01/27 07:51:07;;;;;;;56.03;19.77;;;;;;;3.97;100.00;102281.78;4998500;28;20029;-69
2022/01/27 07:53:32;;;;;;;68.20;26.52;;;;;;;4.02;100.00;102268.34;5022911;28;20120;-69
2022/01/27 07:55:57;;;;;;;74.80;29.98;;;;;;;4.01;100.00;102274.56;5017121;28;20060;-72
2022/01/27 07:58:23;;;;;;;84.65;30.70;;;;;;;4.16;100.00;102267.97;5037023;28;20455;-70
2022/01/27 08:00:48;;;;;;;73.45;26.98;;;;;;;4.05;100.00;102270.94;5031014;28;20036;-69
2022/01/27 08:03:13;;;;;;;73.05;23.33;;;;;;;4.00;100.00;102279.00;5027593;28;20120;-69
2022/01/27 08:05:39;;;;;;;99.45;33.42;;;;;;;4.05;100.00;102274.44;5013865;28;20076;-70
2022/01/27 08:08:04;;;;;;;93.88;32.00;;;;;;;4.01;100.00;102272.78;5022493;28;20029;-69
2022/01/27 08:10:36;;;;;;;93.32;29.92;;;;;;;3.87;100.00;102259.00;5015198;28;20386;-70
2022/01/27 08:13:03;;;;;;;80.93;25.33;;;;;;;4.00;100.00;102273.69;5036201;28;20540;-70
2022/01/27 08:15:28;;;;;;;99.55;30.55;;;;;;;3.92;100.00;102261.53;5017861;28;20029;-73
2022/01/27 08:17:53;;;;;;;90.25;27.05;;;;;;;3.83;100.00;102258.22;5017173;28;20432;-71
2022/01/27 08:20:19;;;;;;;95.93;32.53;;;;;;;3.93;100.00;102255.28;5021895;28;20041;-75
2022/01/27 08:22:46;;;;;;;106.82;32.75;;;;;;;3.96;100.00;102266.72;5005519;28;20030;-72
2022/01/27 08:25:11;;;;;;;107.25;33.33;;;;;;;3.93;100.00;102273.91;5020418;28;20112;-70
2022/01/27 08:27:39;;;;;;;96.80;31.38;;;;;;;3.84;100.00;102256.41;5024783;28;20454;-73
2022/01/27 08:30:05;;;;;;;89.85;28.63;;;;;;;3.98;100.00;102248.94;5021549;28;20033;-70
2022/01/27 08:32:57;;;;;;;93.55;29.02;;;;;;;4.02;100.00;102263.03;5004808;28;20113;-69
2022/01/27 08:35:22;;;;;;;95.88;25.83;;;;;;;3.92;100.00;102258.88;5036527;28;20120;-70
2022/01/27 08:37:48;;;;;;;110.68;34.65;;;;;;;4.07;100.00;102257.56;5016447;28;20021;-69
2022/01/27 08:40:14;;;;;;;85.22;23.98;;;;;;;3.92;100.00;102258.88;5025261;28;20112;-70
2022/01/27 08:42:40;;;;;;;104.88;35.35;;;;;;;4.09;100.00;102269.94;5018104;28;20432;-70
2022/01/27 08:45:10;;;;;;;106.00;35.10;;;;;;;4.13;100.00;102270.72;5025485;28;20025;-70
2022/01/27 08:47:36;;;;;;;96.20;32.58;;;;;;;4.11;100.00;102248.59;5018366;28;20137;-72
2022/01/27 08:50:01;;;;;;;87.95;30.08;;;;;;;4.14;100.00;102249.38;5042763;28;20544;-74
2022/01/27 08:52:27;;;;;;;105.53;33.13;;;;;;;4.15;100.00;102258.25;5016243;28;20029;-70
2022/01/27 08:54:52;;;;;;;99.00;35.22;;;;;;;4.22;100.00;102267.81;5023982;28;20544;-70
2022/01/27 08:57:17;;;;;;;94.63;31.52;;;;;;;4.23;100.00;102258.03;5036052;28;20130;-75
2022/01/27 08:59:43;;;;;;;88.10;33.35;;;;;;;4.23;100.00;102264.22;5020639;28;20057;-70
2022/01/27 09:02:08;;;;;;;79.43;24.15;;;;;;;4.22;100.00;102267.81;5017926;28;20222;-70
2022/01/27 09:04:33;;;;;;;75.90;23.15;;;;;;;4.36;100.00;102262.09;5025347;28;20025;-70
2022/01/27 09:06:59;;;;;;;105.20;33.80;;;;;;;4.50;100.00;102261.69;5018676;28;20139;-70
2022/01/27 09:09:24;;;;;;;82.78;27.15;;;;;;;4.47;100.00;102259.13;5040653;28;20025;-69
2022/01/27 09:11:49;;;;;;;78.13;27.48;;;;;;;4.56;100.00;102264.16;5016529;28;20079;-69
2022/01/27 09:14:15;;;;;;;78.65;26.83;;;;;;;4.50;100.00;102262.53;5023869;28;20025;-70
2022/01/27 09:16:41;;;;;;;97.18;35.05;;;;;;;4.44;100.00;102264.53;5018867;28;20471;-70
2022/01/27 09:19:06;;;;;;;69.20;25.75;;;;;;;4.42;100.00;102245.06;5025604;28;20029;-68
2022/01/27 09:21:44;;;;;;;98.78;32.45;;;;;;;4.59;100.00;102257.88;5036784;28;20032;-69
2022/01/27 09:24:18;;;;;;;69.55;21.83;;;;;;;4.61;100.00;102253.38;5020670;28;20025;-70
2022/01/27 09:27:00;;;;;;;89.45;28.52;;;;;;;4.58;100.00;102235.72;5020347;28;20050;-70
2022/01/27 09:29:26;;;;;;;80.50;24.52;;;;;;;4.68;100.00;102241.63;5019154;28;20034;-70
2022/01/27 09:31:52;;;;;;;76.18;26.13;;;;;;;4.70;100.00;102253.09;5019321;28;20312;-69
2022/01/27 09:34:17;;;;;;;47.42;17.48;;;;;;;4.68;100.00;102252.25;5016013;28;20035;-71
2022/01/27 09:36:43;;;;;;;89.57;32.08;;;;;;;4.73;100.00;102260.13;5022859;28;20029;-70
2022/01/27 09:39:09;;;;;;;77.88;28.80;;;;;;;4.68;100.00;102248.75;5018997;28;20410;-70
2022/01/27 09:41:37;;;;;;;74.35;24.13;;;;;;;4.76;100.00;102246.72;5028010;28;20077;-69
2022/01/27 09:44:04;;;;;;;76.55;24.33;;;;;;;4.94;100.00;102259.47;5032619;28;20030;-69
2022/01/27 09:46:31;;;;;;;83.63;33.08;;;;;;;4.76;100.00;102233.44;5019882;28;20422;-69
2022/01/27 09:48:57;;;;;;;75.40;27.42;;;;;;;5.00;100.00;102252.19;5038188;28;20056;-69
2022/01/27 09:51:27;;;;;;;60.50;21.33;;;;;;;4.82;100.00;102240.34;5003365;28;20124;-69
2022/01/27 09:53:55;;;;;;;73.88;24.38;;;;;;;4.90;100.00;102254.28;5022196;28;20044;-70
2022/01/27 09:56:21;;;;;;;69.95;23.83;;;;;;;5.00;100.00;102265.50;5018246;28;20075;-69
2022/01/27 09:58:46;;;;;;;72.55;25.90;;;;;;;4.99;100.00;102253.97;5019374;28;20116;-69
2022/01/27 10:01:12;;;;;;;66.55;25.45;;;;;;;5.07;100.00;102270.59;5018416;28;20106;-69
2022/01/27 10:03:57;;;;;;;76.68;30.58;;;;;;;5.14;100.00;102270.41;5019691;28;20561;-72
2022/01/27 10:06:29;;;;;;;64.90;23.60;;;;;;;5.05;100.00;102242.25;5016023;28;20097;-70
2022/01/27 10:09:10;;;;;;;57.38;19.95;;;;;;;5.15;100.00;102261.50;5019179;28;20037;-70
2022/01/27 10:11:35;;;;;;;59.28;22.23;;;;;;;5.11;100.00;102255.38;5014419;28;20129;-75
2022/01/27 10:14:22;;;;;;;58.67;21.73;;;;;;;4.99;100.00;102240.66;5022464;28;20041;-70
2022/01/27 10:16:50;;;;;;;50.88;18.83;;;;;;;5.36;100.00;102262.56;5021187;28;20056;-70
2022/01/27 10:19:16;;;;;;;52.72;18.63;;;;;;;5.22;100.00;102263.00;5016527;28;20064;-70
2022/01/27 10:21:43;;;;;;;47.75;16.42;;;;;;;5.17;100.00;102251.63;5018464;28;20083;-69
2022/01/27 10:24:20;;;;;;;53.55;21.25;;;;;;;5.17;100.00;102247.19;5037020;28;20033;-70
2022/01/27 10:26:52;;;;;;;51.25;20.20;;;;;;;5.41;100.00;102268.63;5034001;28;20022;-70
2022/01/27 10:29:30;;;;;;;33.63;11.30;;;;;;;5.36;100.00;102262.56;5034028;28;20025;-73
2022/01/27 10:32:06;;;;;;;34.03;12.63;;;;;;;5.48;100.00;102280.81;5019234;28;20029;-71
2022/01/27 10:34:58;;;;;;;25.33;10.18;;;;;;;5.43;100.00;102274.75;5016586;28;20030;-71
2022/01/27 10:37:24;;;;;;;29.63;11.40;;;;;;;5.51;100.00;102279.84;5017290;28;20055;-71
2022/01/27 10:39:49;;;;;;;45.92;15.68;;;;;;;5.58;100.00;102276.03;5017296;28;20042;-70
2022/01/27 10:42:20;;;;;;;25.23;11.25;;;;;;;5.60;100.00;102275.97;5017843;28;20505;-71
2022/01/27 10:44:48;;;;;;;32.17;13.20;;;;;;;5.66;100.00;102262.47;5016935;28;20022;-72
2022/01/27 10:47:18;;;;;;;34.58;13.65;;;;;;;5.71;100.00;102265.84;5018285;28;20108;-70
2022/01/27 10:49:51;;;;;;;17.40;8.82;;;;;;;5.78;100.00;102266.50;5019136;28;20021;-73
2022/01/27 10:52:26;;;;;;;40.13;21.40;;;;;;;5.71;100.00;102268.50;5031309;28;20430;-70
2022/01/27 10:55:00;;;;;;;34.15;16.00;;;;;;;5.81;100.00;102261.06;5035422;28;20093;-70
2022/01/27 10:57:26;;;;;;;;;;;;;;;5.83;100.00;102269.88;5031551;28;20052;-73
2022/01/27 11:00:15;;;;;;;23.63;9.82;;;;;;;5.76;100.00;102263.00;5013494;28;19921;-72
2022/01/27 11:02:58;;;;;;;33.00;15.15;;;;;;;5.88;100.00;102256.38;5032491;28;20383;-70
2022/01/27 11:05:25;;;;;;;27.08;12.65;;;;;;;5.92;100.00;102264.22;5036946;28;20022;-71
2022/01/27 11:07:51;;;;;;;34.38;17.35;;;;;;;5.97;100.00;102261.38;5018461;28;20157;-70
2022/01/27 11:10:19;;;;;;;20.30;9.80;;;;;;;6.03;100.00;102260.31;5021768;28;20742;-70
2022/01/27 11:12:45;;;;;;;34.03;14.80;;;;;;;6.01;100.00;102263.06;5017907;28;20416;-70
2022/01/27 11:15:18;;;;;;;35.80;16.15;;;;;;;6.10;100.00;102267.19;5022084;28;20025;-69
2022/01/27 11:17:45;;;;;;;33.53;14.15;;;;;;;6.14;100.00;102250.16;5015165;28;20051;-70
2022/01/27 11:20:29;;;;;;;30.15;12.02;;;;;;;6.14;100.00;102232.34;5020645;28;20541;-72
2022/01/27 11:27:50;;;;;;;36.55;16.05;;;;;;;6.21;100.00;102233.00;5019714;28;20037;-72
2022/01/27 11:30:26;;;;;;;31.10;11.95;;;;;;;6.03;100.00;102212.34;5020152;28;20052;-73
2022/01/27 11:33:13;;;;;;;29.48;12.25;;;;;;;6.13;100.00;102211.94;5020205;28;20049;-72
2022/01/27 11:35:39;;;;;;;30.10;14.00;;;;;;;6.14;100.00;102232.34;5027637;28;20084;-70
2022/01/27 11:38:06;;;;;;;22.45;11.07;;;;;;;6.24;100.00;102227.53;5020469;28;20037;-72
2022/01/27 11:40:37;;;;;;;36.22;11.82;;;;;;;6.31;100.00;102225.53;5016036;28;20435;-71
2022/01/27 11:43:06;;;;;;;24.33;10.05;;;;;;;6.15;100.00;102219.91;5026034;28;20035;-73
2022/01/27 11:45:35;;;;;;;23.02;10.18;;;;;;;6.13;100.00;102227.06;5017949;28;20335;-73
2022/01/27 11:48:06;;;;;;;26.10;10.68;;;;;;;6.12;100.00;102228.00;5030829;28;20032;-72
2022/01/27 11:50:48;;;;;;;16.77;8.70;;;;;;;6.17;100.00;102223.38;5016348;28;20424;-73
2022/01/27 11:53:27;;;;;;;24.00;9.15;;;;;;;6.17;100.00;102210.03;5005893;28;20052;-73
2022/01/27 11:55:52;;;;;;;25.25;10.93;;;;;;;6.11;100.00;102197.78;5036980;28;20119;-76
2022/01/27 11:58:22;;;;;;;22.02;9.07;;;;;;;6.30;100.00;102216.63;5020090;28;20116;-75